createdAt,value
2019-02-17T00:00:54.153Z,28.87
2019-02-17T00:03:22.918Z,26.00
2019-02-17T00:05:51.573Z,22.43
2019-02-17T00:08:20.314Z,25.97
2019-02-17T00:10:49.050Z,23.07
2019-02-17T00:13:17.786Z,26.93
2019-02-17T00:15:46.453Z,25.97
2019-02-17T00:18:15.134Z,26.73
2019-02-17T00:20:43.876Z,25.30
2019-02-17T00:23:12.531Z,24.87
2019-02-17T00:25:41.152Z,25.23
2019-02-17T00:28:09.894Z,25.13
2019-02-17T00:30:38.558Z,23.50
2019-02-17T00:33:07.339Z,22.00
2019-02-17T00:35:36.080Z,20.23
2019-02-17T00:38:05.063Z,22.17
2019-02-17T00:40:33.788Z,23.30
2019-02-17T00:43:02.560Z,23.83
2019-02-17T00:45:31.145Z,24.67
2019-02-17T00:47:59.821Z,24.03
2019-02-17T00:50:28.428Z,23.93
2019-02-17T00:52:57.046Z,25.13
2019-02-17T00:55:25.798Z,23.77
2019-02-17T00:57:54.488Z,24.50
2019-02-17T01:00:23.231Z,24.00
2019-02-17T01:02:51.900Z,22.47
2019-02-17T01:05:20.641Z,24.60
2019-02-17T01:07:49.378Z,24.30
2019-02-17T01:10:18.185Z,23.13
2019-02-17T01:12:46.800Z,22.93
2019-02-17T01:15:15.467Z,23.53
2019-02-17T01:17:44.217Z,23.20
2019-02-17T01:20:12.948Z,24.27
2019-02-17T01:22:41.641Z,23.83
2019-02-17T01:25:10.848Z,23.77
2019-02-17T01:27:39.571Z,25.33
2019-02-17T01:30:15.492Z,24.37
2019-02-17T01:32:44.249Z,22.03
2019-02-17T01:35:13.023Z,23.13
2019-02-17T01:37:41.647Z,22.53
2019-02-17T01:40:10.554Z,23.10
2019-02-17T01:42:39.251Z,23.53
2019-02-17T01:45:09.750Z,20.77
2019-02-17T01:47:38.556Z,24.13
2019-02-17T01:50:09.121Z,22.90
2019-02-17T01:52:37.928Z,23.87
2019-02-17T01:55:08.234Z,24.50
2019-02-17T01:57:36.990Z,23.73
2019-02-17T02:00:14.271Z,23.80
2019-02-17T02:02:43.091Z,23.47
2019-02-17T02:05:11.904Z,25.03
2019-02-17T02:07:40.520Z,24.70
2019-02-17T02:10:10.475Z,24.53
2019-02-17T02:12:39.225Z,22.83
2019-02-17T02:15:12.220Z,25.87
2019-02-17T02:17:40.914Z,27.70
2019-02-17T02:20:11.820Z,26.00
2019-02-17T02:22:40.492Z,28.77
2019-02-17T02:25:09.244Z,28.57
2019-02-17T02:27:37.944Z,28.43
2019-02-17T02:30:09.727Z,29.73
2019-02-17T02:32:38.463Z,28.50
2019-02-17T02:35:07.283Z,29.50
2019-02-17T02:37:35.975Z,31.40
2019-02-17T02:40:05.171Z,29.50
2019-02-17T02:42:33.792Z,29.43
2019-02-17T02:45:02.489Z,28.37
2019-02-17T02:47:31.107Z,27.87
2019-02-17T02:49:59.794Z,30.70
2019-02-17T02:52:28.544Z,28.33
2019-02-17T02:54:57.163Z,28.87
2019-02-17T02:57:25.833Z,28.93
2019-02-17T02:59:54.447Z,28.23
2019-02-17T03:02:23.176Z,27.47
2019-02-17T03:04:51.847Z,26.27
2019-02-17T03:07:20.535Z,27.53
2019-02-17T03:09:49.201Z,25.90
2019-02-17T03:12:17.891Z,24.27
2019-02-17T03:14:46.624Z,24.90
2019-02-17T03:17:15.316Z,24.13
2019-02-17T03:19:44.068Z,22.83
2019-02-17T03:22:12.753Z,23.57
2019-02-17T03:24:41.427Z,24.57
2019-02-17T03:27:10.203Z,24.83
2019-02-17T03:29:38.939Z,24.97
2019-02-17T03:32:07.719Z,25.23
2019-02-17T03:34:36.359Z,25.00
2019-02-17T03:37:05.060Z,23.80
2019-02-17T03:39:33.746Z,22.53
2019-02-17T03:42:02.742Z,23.57
2019-02-17T03:44:31.428Z,22.63
2019-02-17T03:47:00.111Z,24.77
2019-02-17T03:49:28.804Z,23.73
2019-02-17T03:51:57.427Z,24.27
2019-02-17T03:54:26.106Z,24.47
2019-02-17T03:56:54.794Z,23.47
2019-02-17T03:59:23.507Z,24.47
2019-02-17T04:01:52.156Z,25.83
2019-02-17T04:04:20.899Z,24.67
2019-02-17T04:06:49.566Z,25.13
2019-02-17T04:09:18.256Z,26.17
2019-02-17T04:11:47.010Z,26.27
2019-02-17T04:14:15.631Z,27.53
2019-02-17T04:16:44.380Z,26.67
2019-02-17T04:19:13.117Z,26.00
2019-02-17T04:21:41.734Z,24.37
2019-02-17T04:24:10.405Z,26.93
2019-02-17T04:26:39.025Z,24.07
2019-02-17T04:29:10.209Z,24.70
2019-02-17T04:31:38.031Z,25.00
2019-02-17T04:34:06.773Z,24.83
2019-02-17T04:36:35.462Z,23.90
2019-02-17T04:39:05.264Z,24.40
2019-02-17T04:41:34.014Z,23.50
2019-02-17T04:44:02.698Z,23.00
2019-02-17T04:46:31.366Z,22.60
2019-02-17T04:49:00.172Z,22.37
2019-02-17T04:51:28.859Z,21.97
2019-02-17T04:53:57.592Z,23.10
2019-02-17T04:56:26.284Z,22.17
2019-02-17T04:58:54.963Z,21.10
2019-02-17T05:01:23.588Z,21.70
2019-02-17T05:03:52.311Z,22.50
2019-02-17T05:06:20.954Z,22.70
2019-02-17T05:08:49.733Z,22.17
2019-02-17T05:11:18.349Z,21.77
2019-02-17T05:13:47.030Z,21.97
2019-02-17T05:16:15.643Z,21.57
2019-02-17T05:18:44.320Z,23.50
2019-02-17T05:21:12.990Z,23.03
2019-02-17T05:23:41.658Z,21.90
2019-02-17T05:26:10.347Z,22.37
2019-02-17T05:28:38.973Z,22.47
2019-02-17T05:31:07.723Z,21.97
2019-02-17T05:33:36.404Z,22.27
2019-02-17T05:36:05.163Z,22.63
2019-02-17T05:38:33.779Z,21.50
2019-02-17T05:41:02.520Z,22.70
2019-02-17T05:43:31.148Z,21.40
2019-02-17T05:45:59.896Z,22.57
2019-02-17T05:48:29.477Z,21.67
2019-02-17T05:50:58.171Z,22.23
2019-02-17T05:53:26.844Z,22.60
2019-02-17T05:55:55.465Z,22.77
2019-02-17T05:58:24.126Z,22.53
2019-02-17T06:01:03.035Z,21.63
2019-02-17T06:03:23.078Z,21.50
2019-02-17T06:05:51.806Z,23.10
2019-02-17T06:08:20.487Z,22.03
2019-02-17T06:10:49.164Z,21.73
2019-02-17T06:13:17.864Z,20.97
2019-02-17T06:15:46.608Z,21.47
2019-02-17T06:18:15.295Z,22.73
2019-02-17T06:20:43.988Z,22.30
2019-02-17T06:23:12.602Z,22.73
2019-02-17T06:25:41.228Z,21.33
2019-02-17T06:28:09.975Z,21.50
2019-02-17T06:30:38.641Z,20.87
2019-02-17T06:33:07.320Z,21.33
2019-02-17T06:35:36.012Z,21.80
2019-02-17T06:38:04.637Z,20.17
2019-02-17T06:40:33.307Z,19.57
2019-02-17T06:43:02.006Z,20.20
2019-02-17T06:45:30.705Z,20.30
2019-02-17T06:47:59.362Z,20.80
2019-02-17T06:50:28.090Z,20.63
2019-02-17T06:52:56.771Z,20.80
2019-02-17T06:55:33.288Z,22.23
2019-02-17T06:58:01.924Z,22.30
2019-02-17T07:00:32.232Z,21.57
2019-02-17T07:03:00.959Z,21.30
2019-02-17T07:05:36.961Z,20.57
2019-02-17T07:08:05.685Z,19.07
2019-02-17T07:10:34.292Z,19.13
2019-02-17T07:13:03.040Z,19.33
2019-02-17T07:15:31.731Z,19.03
2019-02-17T07:18:00.368Z,19.20
2019-02-17T07:20:29.019Z,19.93
2019-02-17T07:22:57.765Z,19.10
2019-02-17T07:25:30.049Z,18.77
2019-02-17T07:27:56.699Z,19.67
2019-02-17T07:30:25.435Z,18.80
2019-02-17T07:32:54.072Z,19.23
2019-02-17T07:35:22.740Z,18.60
2019-02-17T07:37:51.344Z,19.57
2019-02-17T07:40:20.007Z,18.33
2019-02-17T07:42:48.703Z,18.77
2019-02-17T07:45:17.550Z,18.67
2019-02-17T07:47:46.329Z,20.43
2019-02-17T07:50:14.984Z,18.80
2019-02-17T07:52:43.737Z,19.33
2019-02-17T07:55:12.761Z,20.47
2019-02-17T07:57:48.834Z,19.20
2019-02-17T08:00:17.552Z,18.67
2019-02-17T08:02:46.376Z,17.93
2019-02-17T08:05:15.147Z,16.97
2019-02-17T08:07:43.904Z,17.87
2019-02-17T08:10:12.657Z,18.17
2019-02-17T08:12:41.413Z,17.80
2019-02-17T08:15:10.955Z,17.60
2019-02-17T08:17:39.761Z,17.40
2019-02-17T08:20:10.714Z,16.97
2019-02-17T08:22:39.451Z,16.10
2019-02-17T08:25:08.802Z,15.67
2019-02-17T08:27:37.488Z,16.17
2019-02-17T08:30:09.359Z,15.77
2019-02-17T08:32:38.100Z,15.40
2019-02-17T08:35:08.674Z,15.53
2019-02-17T08:37:37.287Z,14.53
2019-02-17T08:40:08.559Z,14.40
2019-02-17T08:42:37.178Z,15.20
2019-02-17T08:45:08.185Z,13.97
2019-02-17T08:47:36.872Z,14.57
2019-02-17T08:50:08.993Z,14.83
2019-02-17T08:52:37.771Z,14.17
2019-02-17T08:55:09.083Z,14.60
2019-02-17T08:57:38.163Z,14.27
2019-02-17T09:00:12.607Z,14.73
2019-02-17T09:02:41.221Z,14.33
2019-02-17T09:05:10.036Z,15.17
2019-02-17T09:07:38.855Z,15.13
2019-02-17T09:10:11.019Z,14.93
2019-02-17T09:12:39.759Z,14.33
2019-02-17T09:15:11.088Z,14.87
2019-02-17T09:17:39.830Z,14.53
2019-02-17T09:20:10.451Z,14.83
2019-02-17T09:22:39.208Z,15.40
2019-02-17T09:25:10.270Z,14.77
2019-02-17T09:27:39.033Z,15.20
2019-02-17T09:30:13.493Z,15.50
2019-02-17T09:32:42.167Z,15.77
2019-02-17T09:35:10.854Z,16.53
2019-02-17T09:37:39.528Z,16.43
2019-02-17T09:40:10.591Z,16.40
2019-02-17T09:42:39.274Z,16.87
2019-02-17T09:45:13.444Z,15.43
2019-02-17T09:47:42.150Z,16.57
2019-02-17T09:50:12.696Z,16.10
2019-02-17T09:52:41.440Z,16.20
2019-02-17T09:55:11.093Z,15.90
2019-02-17T09:57:39.966Z,17.07
2019-02-17T10:00:16.080Z,16.87
2019-02-17T10:02:44.731Z,16.67
2019-02-17T10:05:13.895Z,17.20
2019-02-17T10:07:42.657Z,17.80
2019-02-17T10:10:16.141Z,17.50
2019-02-17T10:12:44.829Z,18.33
2019-02-17T10:15:14.241Z,19.47
2019-02-17T10:17:42.928Z,17.87
2019-02-17T10:20:15.848Z,18.37
2019-02-17T10:22:44.610Z,18.17
2019-02-17T10:25:13.409Z,17.70
2019-02-17T10:27:42.027Z,17.33
2019-02-17T10:30:13.813Z,17.90
2019-02-17T10:32:42.439Z,17.23
2019-02-17T10:35:11.456Z,17.43
2019-02-17T10:37:40.066Z,18.00
2019-02-17T10:40:11.849Z,18.30
2019-02-17T10:42:40.547Z,17.67
2019-02-17T10:45:10.559Z,18.50
2019-02-17T10:47:39.292Z,18.43
2019-02-17T10:50:10.422Z,17.73
2019-02-17T10:52:39.215Z,18.67
2019-02-17T10:55:10.600Z,18.47
2019-02-17T10:57:39.280Z,18.27
2019-02-17T11:00:16.779Z,18.23
2019-02-17T11:02:47.416Z,18.20
2019-02-17T11:05:16.301Z,18.60
2019-02-17T11:07:45.016Z,18.80
2019-02-17T11:10:14.411Z,18.07
2019-02-17T11:12:43.169Z,18.97
2019-02-17T11:15:15.246Z,18.30
2019-02-17T11:17:43.988Z,18.23
2019-02-17T11:20:12.681Z,18.40
2019-02-17T11:22:41.487Z,19.20
2019-02-17T11:25:10.243Z,18.67
2019-02-17T11:27:38.985Z,18.70
2019-02-17T11:30:13.456Z,19.47
2019-02-17T11:32:42.105Z,19.40
2019-02-17T11:35:11.205Z,19.23
2019-02-17T11:37:39.923Z,18.60
2019-02-17T11:40:10.846Z,18.60
2019-02-17T11:42:39.595Z,19.20
2019-02-17T11:45:11.582Z,19.47
2019-02-17T11:47:40.506Z,18.47
2019-02-17T11:50:09.828Z,19.53
2019-02-17T11:52:38.581Z,18.23
2019-02-17T11:55:13.015Z,19.87
2019-02-17T11:57:41.929Z,18.87
2019-02-17T12:00:13.828Z,15.13
2019-02-17T12:02:42.448Z,13.97
2019-02-17T12:05:11.798Z,14.97
2019-02-17T12:07:40.416Z,14.50
2019-02-17T12:10:10.984Z,14.10
2019-02-17T12:12:40.107Z,14.03
2019-02-17T12:15:13.399Z,14.87
2019-02-17T12:17:42.092Z,14.50
2019-02-17T12:20:30.368Z,15.07
2019-02-17T12:23:01.644Z,16.43
2019-02-17T12:25:31.944Z,16.17
2019-02-17T12:28:05.174Z,15.50
2019-02-17T12:30:33.911Z,16.03
2019-02-17T12:33:02.674Z,15.23
2019-02-17T12:35:31.348Z,14.80
2019-02-17T12:38:00.040Z,14.23
2019-02-17T12:40:29.088Z,14.03
2019-02-17T12:42:57.674Z,14.10
2019-02-17T12:45:26.335Z,13.20
2019-02-17T12:47:57.854Z,13.37
2019-02-17T12:50:25.284Z,14.23
2019-02-17T12:52:54.008Z,12.67
2019-02-17T12:55:22.688Z,13.43
2019-02-17T12:57:51.319Z,12.73
2019-02-17T13:00:20.120Z,12.67
2019-02-17T13:02:48.734Z,13.07
2019-02-17T13:05:17.554Z,13.00
2019-02-17T13:07:46.176Z,13.33
2019-02-17T13:10:14.871Z,13.10
2019-02-17T13:12:43.623Z,12.17
2019-02-17T13:15:13.475Z,12.33
2019-02-17T13:17:42.147Z,12.87
2019-02-17T13:20:13.102Z,12.80
2019-02-17T13:22:41.748Z,12.03
2019-02-17T13:25:13.490Z,12.17
2019-02-17T13:27:42.291Z,12.60
2019-02-17T13:30:20.082Z,11.83
2019-02-17T13:32:48.742Z,12.27
2019-02-17T13:35:17.438Z,11.30
2019-02-17T13:37:46.114Z,10.63
2019-02-17T13:40:14.966Z,11.27
2019-02-17T13:42:43.719Z,11.10
2019-02-17T13:45:14.035Z,11.23
2019-02-17T13:47:42.725Z,10.50
2019-02-17T13:50:13.389Z,10.83
2019-02-17T13:52:43.072Z,10.87
2019-02-17T13:55:11.973Z,11.33
2019-02-17T13:57:40.745Z,10.13
2019-02-17T14:00:19.623Z,10.70
2019-02-17T14:02:48.365Z,9.20
2019-02-17T14:05:17.158Z,9.87
2019-02-17T14:07:46.069Z,8.97
2019-02-17T14:10:15.274Z,9.47
2019-02-17T14:12:43.947Z,9.83
2019-02-17T14:15:32.065Z,9.57
2019-02-17T14:18:00.699Z,9.77
2019-02-17T14:20:29.366Z,10.30
2019-02-17T14:22:58.053Z,10.77
2019-02-17T14:25:26.856Z,10.50
2019-02-17T14:27:55.650Z,9.90
2019-02-17T14:30:24.312Z,9.87
2019-02-17T14:32:52.977Z,10.10
2019-02-17T14:35:21.659Z,10.57
2019-02-17T14:37:50.314Z,9.90
2019-02-17T14:40:19.074Z,9.90
2019-02-17T14:42:47.742Z,10.27
2019-02-17T14:45:17.433Z,10.47
2019-02-17T14:47:46.174Z,10.47
2019-02-17T14:50:15.003Z,10.43
2019-02-17T14:52:43.667Z,10.93
2019-02-17T14:55:12.995Z,10.37
2019-02-17T14:57:41.613Z,9.63
2019-02-17T15:00:15.609Z,9.07
2019-02-17T15:02:44.431Z,9.67
2019-02-17T15:05:13.040Z,9.13
2019-02-17T15:07:41.817Z,9.83
2019-02-17T15:10:12.056Z,9.50
2019-02-17T15:12:40.851Z,10.23
2019-02-17T15:15:14.667Z,9.07
2019-02-17T15:17:43.277Z,9.53
2019-02-17T15:20:14.707Z,9.47
2019-02-17T15:22:43.352Z,9.50
2019-02-17T15:25:12.564Z,9.00
2019-02-17T15:27:41.255Z,9.40
2019-02-17T15:30:12.913Z,9.50
2019-02-17T15:32:41.641Z,9.57
2019-02-17T15:35:10.396Z,9.40
2019-02-17T15:37:39.213Z,8.87
2019-02-17T15:40:10.752Z,8.77
2019-02-17T15:42:39.568Z,9.17
2019-02-17T15:45:10.732Z,9.77
2019-02-17T15:47:39.480Z,9.30
2019-02-17T15:50:10.159Z,9.53
2019-02-17T15:52:38.865Z,9.77
2019-02-17T15:55:12.183Z,9.87
2019-02-17T15:57:40.936Z,10.17
2019-02-17T16:00:12.763Z,9.27
2019-02-17T16:02:41.455Z,9.47
2019-02-17T16:05:10.441Z,9.37
2019-02-17T16:07:39.257Z,9.43
2019-02-17T16:10:12.584Z,8.80
2019-02-17T16:12:41.240Z,10.17
2019-02-17T16:15:12.980Z,9.20
2019-02-17T16:17:41.664Z,9.23
2019-02-17T16:20:12.671Z,8.97
2019-02-17T16:22:41.424Z,9.07
2019-02-17T16:25:11.282Z,8.67
2019-02-17T16:27:39.938Z,8.70
2019-02-17T16:30:16.532Z,8.70
2019-02-17T16:32:45.197Z,8.90
2019-02-17T16:35:13.948Z,8.03
2019-02-17T16:37:42.620Z,8.53
2019-02-17T16:40:16.524Z,9.23
2019-02-17T16:42:45.207Z,9.70
2019-02-17T16:45:14.845Z,9.03
2019-02-17T16:47:44.283Z,7.50
2019-02-17T16:50:21.326Z,8.30
2019-02-17T16:52:50.028Z,9.00
2019-02-17T16:55:18.918Z,8.70
2019-02-17T16:57:48.029Z,8.73
2019-02-17T17:00:23.797Z,8.90
2019-02-17T17:02:53.488Z,8.97
2019-02-17T17:05:23.249Z,9.07
2019-02-17T17:07:52.051Z,8.93
2019-02-17T17:10:20.993Z,8.53
2019-02-17T17:12:49.733Z,9.10
2019-02-17T17:15:18.688Z,8.97
2019-02-17T17:17:47.433Z,9.00
2019-02-17T17:20:17.892Z,8.83
2019-02-17T17:22:46.631Z,8.73
2019-02-17T17:25:15.740Z,7.87
2019-02-17T17:27:44.647Z,8.77
2019-02-17T17:30:15.769Z,8.60
2019-02-17T17:32:44.600Z,7.67
2019-02-17T17:35:13.582Z,5.90
2019-02-17T17:37:42.386Z,6.53
2019-02-17T17:40:15.787Z,7.50
2019-02-17T17:42:44.467Z,7.93
2019-02-17T17:45:20.882Z,7.63
2019-02-17T17:47:49.641Z,8.37
2019-02-17T17:50:18.559Z,9.17
2019-02-17T17:52:47.375Z,9.60
2019-02-17T17:55:16.061Z,9.10
2019-02-17T17:57:44.736Z,9.63
2019-02-17T18:00:16.779Z,9.50
2019-02-17T18:02:45.390Z,9.27
2019-02-17T18:05:14.511Z,9.67
2019-02-17T18:07:43.255Z,9.43
2019-02-17T18:10:16.456Z,9.80
2019-02-17T18:12:45.265Z,9.67
2019-02-17T18:15:15.929Z,11.00
2019-02-17T18:17:53.966Z,9.90
2019-02-17T18:20:15.193Z,10.17
2019-02-17T18:22:43.995Z,9.67
2019-02-17T18:25:14.361Z,9.57
2019-02-17T18:27:43.228Z,9.50
2019-02-17T18:30:17.231Z,10.37
2019-02-17T18:32:46.070Z,9.43
2019-02-17T18:35:19.763Z,9.17
2019-02-17T18:37:45.299Z,9.03
2019-02-17T18:40:17.919Z,9.17
2019-02-17T18:42:46.653Z,8.57
2019-02-17T18:45:16.410Z,8.70
2019-02-17T18:47:45.225Z,8.70
2019-02-17T18:50:15.280Z,9.27
2019-02-17T18:52:44.093Z,9.47
2019-02-17T18:55:13.553Z,9.07
2019-02-17T18:57:49.436Z,9.30
2019-02-17T19:00:26.652Z,8.97
2019-02-17T19:02:55.344Z,8.97
2019-02-17T19:05:31.679Z,8.87
2019-02-17T19:07:54.471Z,9.37
2019-02-17T19:10:23.137Z,9.10
2019-02-17T19:12:51.822Z,8.37
2019-02-17T19:15:23.523Z,8.67
2019-02-17T19:17:53.132Z,8.70
2019-02-17T19:20:33.743Z,8.77
2019-02-17T19:23:02.659Z,8.53
2019-02-17T19:25:31.280Z,9.27
2019-02-17T19:28:00.269Z,8.90
2019-02-17T19:30:28.911Z,8.90
2019-02-17T19:32:57.562Z,8.83
2019-02-17T19:35:26.223Z,8.77
2019-02-17T19:37:54.891Z,8.80
2019-02-17T19:40:23.701Z,8.53
2019-02-17T19:42:52.320Z,9.20
2019-02-17T19:45:21.079Z,8.67
2019-02-17T19:47:50.207Z,8.17
2019-02-17T19:50:18.854Z,8.67
2019-02-17T19:52:47.542Z,8.23
2019-02-17T19:55:16.301Z,8.37
2019-02-17T19:57:45.209Z,8.10
2019-02-17T20:00:16.199Z,7.90
2019-02-17T20:03:03.399Z,8.67
2019-02-17T20:05:51.338Z,8.93
2019-02-17T20:08:13.334Z,8.87
2019-02-17T20:10:41.943Z,8.83
2019-02-17T20:13:10.570Z,9.13
2019-02-17T20:15:39.365Z,8.63
2019-02-17T20:18:08.173Z,8.57
2019-02-17T20:20:36.848Z,8.80
2019-02-17T20:23:05.661Z,8.67
2019-02-17T20:25:34.278Z,9.03
2019-02-17T20:28:03.023Z,9.90
2019-02-17T20:30:32.041Z,8.57
2019-02-17T20:33:00.882Z,8.87
2019-02-17T20:35:29.591Z,9.17
2019-02-17T20:37:58.403Z,9.30
2019-02-17T20:40:27.135Z,8.87
2019-02-17T20:42:55.739Z,9.00
2019-02-17T20:45:24.484Z,9.03
2019-02-17T20:47:53.151Z,8.47
2019-02-17T20:50:22.104Z,8.17
2019-02-17T20:52:50.716Z,8.53
2019-02-17T20:55:19.383Z,8.93
2019-02-17T20:57:48.123Z,9.40
2019-02-17T21:00:23.003Z,9.27
2019-02-17T21:02:51.775Z,9.07
2019-02-17T21:05:20.501Z,9.23
2019-02-17T21:07:50.659Z,8.93
2019-02-17T21:10:19.463Z,8.93
2019-02-17T21:12:48.453Z,8.90
2019-02-17T21:15:19.222Z,8.77
2019-02-17T21:17:47.852Z,8.90
2019-02-17T21:20:17.877Z,8.97
2019-02-17T21:22:48.009Z,9.00
2019-02-17T21:25:17.066Z,9.03
2019-02-17T21:27:45.943Z,8.93
2019-02-17T21:30:17.281Z,8.80
2019-02-17T21:32:46.579Z,9.03
2019-02-17T21:35:37.916Z,8.87
2019-02-17T21:38:06.965Z,9.40
2019-02-17T21:40:37.722Z,10.30
2019-02-17T21:43:06.707Z,9.30
2019-02-17T21:45:35.671Z,10.10
2019-02-17T21:48:04.800Z,9.50
2019-02-17T21:50:34.986Z,9.57
2019-02-17T21:53:04.010Z,10.50
2019-02-17T21:55:33.120Z,10.10
2019-02-17T21:58:01.962Z,10.37
2019-02-17T22:00:31.111Z,10.03
2019-02-17T22:02:59.856Z,9.97
2019-02-17T22:05:28.591Z,9.80
2019-02-17T22:07:57.208Z,10.80
2019-02-17T22:10:25.855Z,10.73
2019-02-17T22:12:54.522Z,10.03
2019-02-17T22:15:24.741Z,9.70
2019-02-17T22:17:53.494Z,10.13
2019-02-17T22:20:22.250Z,10.53
2019-02-17T22:22:51.287Z,10.43
2019-02-17T22:25:20.068Z,10.63
2019-02-17T22:27:48.773Z,11.07
2019-02-17T22:30:17.485Z,10.60
2019-02-17T22:32:46.233Z,9.80
2019-02-17T22:35:15.564Z,10.20
2019-02-17T22:37:44.247Z,10.80
2019-02-17T22:40:15.280Z,10.57
2019-02-17T22:42:44.084Z,10.03
2019-02-17T22:45:13.840Z,10.30
2019-02-17T22:47:42.595Z,8.90
2019-02-17T22:50:15.459Z,10.10
2019-02-17T22:52:45.325Z,10.80
2019-02-17T22:55:14.725Z,10.87
2019-02-17T22:57:43.475Z,11.20
2019-02-17T23:00:18.067Z,10.50
2019-02-17T23:02:46.942Z,10.17
2019-02-17T23:05:15.602Z,9.90
2019-02-17T23:07:44.351Z,9.73
2019-02-17T23:10:13.243Z,9.77
2019-02-17T23:12:41.903Z,11.00
2019-02-17T23:15:10.718Z,10.67
2019-02-17T23:17:39.439Z,10.97
2019-02-17T23:20:08.682Z,11.07
2019-02-17T23:22:37.621Z,10.20
2019-02-17T23:25:09.171Z,9.80
2019-02-17T23:27:38.065Z,10.00
2019-02-17T23:30:09.160Z,9.83
2019-02-17T23:32:37.953Z,10.53
2019-02-17T23:35:07.013Z,10.33
2019-02-17T23:37:35.749Z,10.27
2019-02-17T23:47:44.049Z,10.93
2019-02-17T23:50:14.114Z,8.37
2019-02-17T23:52:43.171Z,8.40
2019-02-17T23:55:13.106Z,10.03
2019-02-17T23:57:42.662Z,9.47
